sensor_id;sensor_type;location;lat;lon;timestamp;P1;durP1;ratioP1;P2;durP2;ratioP2
21114;SDS011;10715;48.546;9.896;2022-11-15T00:00:46;1.53;;;1.43;;
21114;SDS011;10715;48.546;9.896;2022-11-15T00:03:16;2.13;;;1.23;;
21114;SDS011;10715;48.546;9.896;2022-11-15T00:05:43;1.50;;;1.30;;
21114;SDS011;10715;48.546;9.896;2022-11-15T00:08:09;4.10;;;1.27;;
21114;SDS011;10715;48.546;9.896;2022-11-15T00:10:35;2.40;;;1.43;;
21114;SDS011;10715;48.546;9.896;2022-11-15T00:13:05;1.90;;;1.63;;
21114;SDS011;10715;48.546;9.896;2022-11-15T00:15:34;2.10;;;1.43;;
21114;SDS011;10715;48.546;9.896;2022-11-15T00:18:03;2.47;;;1.37;;
21114;SDS011;10715;48.546;9.896;2022-11-15T00:20:29;1.73;;;1.63;;
21114;SDS011;10715;48.546;9.896;2022-11-15T00:22:55;4.03;;;1.97;;
21114;SDS011;10715;48.546;9.896;2022-11-15T00:25:21;3.20;;;2.10;;
21114;SDS011;10715;48.546;9.896;2022-11-15T00:27:46;5.30;;;3.23;;
21114;SDS011;10715;48.546;9.896;2022-11-15T00:30:12;3.47;;;3.23;;
21114;SDS011;10715;48.546;9.896;2022-11-15T00:32:38;6.10;;;4.47;;
21114;SDS011;10715;48.546;9.896;2022-11-15T00:35:03;4.37;;;3.03;;
21114;SDS011;10715;48.546;9.896;2022-11-15T00:37:30;3.87;;;3.57;;
21114;SDS011;10715;48.546;9.896;2022-11-15T00:39:55;3.63;;;1.97;;
21114;SDS011;10715;48.546;9.896;2022-11-15T00:42:21;3.20;;;1.53;;
21114;SDS011;10715;48.546;9.896;2022-11-15T00:44:47;2.03;;;1.83;;
21114;SDS011;10715;48.546;9.896;2022-11-15T00:47:12;1.37;;;1.20;;
21114;SDS011;10715;48.546;9.896;2022-11-15T00:49:38;2.60;;;1.77;;
21114;SDS011;10715;48.546;9.896;2022-11-15T00:52:04;2.77;;;2.57;;
21114;SDS011;10715;48.546;9.896;2022-11-15T00:54:29;9.63;;;2.97;;
21114;SDS011;10715;48.546;9.896;2022-11-15T00:56:55;2.73;;;2.53;;
21114;SDS011;10715;48.546;9.896;2022-11-15T00:59:21;5.63;;;3.03;;
21114;SDS011;10715;48.546;9.896;2022-11-15T01:01:46;4.73;;;2.60;;
21114;SDS011;10715;48.546;9.896;2022-11-15T01:04:12;9.33;;;2.87;;
21114;SDS011;10715;48.546;9.896;2022-11-15T01:06:39;6.93;;;2.37;;
21114;SDS011;10715;48.546;9.896;2022-11-15T01:09:04;4.63;;;3.60;;
21114;SDS011;10715;48.546;9.896;2022-11-15T01:11:30;2.50;;;1.93;;
21114;SDS011;10715;48.546;9.896;2022-11-15T01:13:56;6.00;;;3.07;;
21114;SDS011;10715;48.546;9.896;2022-11-15T01:16:21;5.27;;;2.60;;
21114;SDS011;10715;48.546;9.896;2022-11-15T01:18:47;2.30;;;2.10;;
21114;SDS011;10715;48.546;9.896;2022-11-15T01:21:14;2.27;;;1.70;;
21114;SDS011;10715;48.546;9.896;2022-11-15T01:23:42;2.90;;;2.17;;
21114;SDS011;10715;48.546;9.896;2022-11-15T01:26:09;4.40;;;1.87;;
21114;SDS011;10715;48.546;9.896;2022-11-15T01:28:37;6.10;;;2.03;;
21114;SDS011;10715;48.546;9.896;2022-11-15T01:31:05;5.70;;;2.73;;
21114;SDS011;10715;48.546;9.896;2022-11-15T01:33:34;2.23;;;2.03;;
21114;SDS011;10715;48.546;9.896;2022-11-15T01:36:05;4.57;;;2.03;;
21114;SDS011;10715;48.546;9.896;2022-11-15T01:38:33;2.53;;;2.33;;
21114;SDS011;10715;48.546;9.896;2022-11-15T01:40:59;1.80;;;1.70;;
21114;SDS011;10715;48.546;9.896;2022-11-15T01:43:43;2.70;;;2.00;;
21114;SDS011;10715;48.546;9.896;2022-11-15T01:48:46;1.60;;;1.47;;
21114;SDS011;10715;48.546;9.896;2022-11-15T01:51:13;1.73;;;1.63;;
21114;SDS011;10715;48.546;9.896;2022-11-15T01:53:42;2.33;;;1.47;;
21114;SDS011;10715;48.546;9.896;2022-11-15T01:56:13;2.47;;;1.70;;
21114;SDS011;10715;48.546;9.896;2022-11-15T01:58:42;2.03;;;1.60;;
21114;SDS011;10715;48.546;9.896;2022-11-15T02:01:09;2.20;;;2.00;;
21114;SDS011;10715;48.546;9.896;2022-11-15T02:03:38;2.17;;;1.97;;
21114;SDS011;10715;48.546;9.896;2022-11-15T02:06:25;3.90;;;3.20;;
21114;SDS011;10715;48.546;9.896;2022-11-15T02:08:51;2.50;;;1.67;;
21114;SDS011;10715;48.546;9.896;2022-11-15T02:11:17;5.87;;;3.20;;
21114;SDS011;10715;48.546;9.896;2022-11-15T02:13:43;3.03;;;2.27;;
21114;SDS011;10715;48.546;9.896;2022-11-15T02:18:41;2.43;;;1.80;;
21114;SDS011;10715;48.546;9.896;2022-11-15T02:32:31;3.10;;;1.53;;
21114;SDS011;10715;48.546;9.896;2022-11-15T02:43:00;4.10;;;2.20;;
21114;SDS011;10715;48.546;9.896;2022-11-15T02:46:14;2.10;;;1.90;;
21114;SDS011;10715;48.546;9.896;2022-11-15T02:48:45;1.97;;;1.80;;
21114;SDS011;10715;48.546;9.896;2022-11-15T02:51:13;4.47;;;2.00;;
21114;SDS011;10715;48.546;9.896;2022-11-15T02:53:40;2.10;;;1.80;;
21114;SDS011;10715;48.546;9.896;2022-11-15T02:56:07;3.30;;;2.30;;
21114;SDS011;10715;48.546;9.896;2022-11-15T03:18:00;1.90;;;1.80;;
21114;SDS011;10715;48.546;9.896;2022-11-15T03:20:31;2.43;;;1.90;;
21114;SDS011;10715;48.546;9.896;2022-11-15T03:23:07;7.70;;;1.87;;
21114;SDS011;10715;48.546;9.896;2022-11-15T03:25:35;1.93;;;1.40;;
21114;SDS011;10715;48.546;9.896;2022-11-15T03:28:05;1.50;;;1.10;;
21114;SDS011;10715;48.546;9.896;2022-11-15T03:30:34;2.30;;;1.97;;
21114;SDS011;10715;48.546;9.896;2022-11-15T03:33:01;1.80;;;1.70;;
21114;SDS011;10715;48.546;9.896;2022-11-15T03:35:30;2.30;;;2.10;;
21114;SDS011;10715;48.546;9.896;2022-11-15T03:38:17;5.20;;;2.60;;
21114;SDS011;10715;48.546;9.896;2022-11-15T03:40:54;3.70;;;3.50;;
21114;SDS011;10715;48.546;9.896;2022-11-15T03:46:12;1.90;;;1.50;;
21114;SDS011;10715;48.546;9.896;2022-11-15T03:48:41;2.17;;;1.77;;
21114;SDS011;10715;48.546;9.896;2022-11-15T03:51:11;2.83;;;1.70;;
21114;SDS011;10715;48.546;9.896;2022-11-15T03:53:38;1.63;;;1.30;;
21114;SDS011;10715;48.546;9.896;2022-11-15T03:56:05;1.87;;;1.77;;
21114;SDS011;10715;48.546;9.896;2022-11-15T03:58:31;2.47;;;2.17;;
21114;SDS011;10715;48.546;9.896;2022-11-15T04:00:57;5.30;;;3.03;;
21114;SDS011;10715;48.546;9.896;2022-11-15T04:03:24;2.97;;;2.53;;
21114;SDS011;10715;48.546;9.896;2022-11-15T04:05:50;2.40;;;1.47;;
21114;SDS011;10715;48.546;9.896;2022-11-15T04:08:16;3.80;;;2.20;;
21114;SDS011;10715;48.546;9.896;2022-11-15T04:10:42;6.30;;;5.57;;
21114;SDS011;10715;48.546;9.896;2022-11-15T04:13:08;6.07;;;5.57;;
21114;SDS011;10715;48.546;9.896;2022-11-15T04:15:34;8.40;;;5.27;;
21114;SDS011;10715;48.546;9.896;2022-11-15T04:18:00;4.70;;;3.90;;
21114;SDS011;10715;48.546;9.896;2022-11-15T04:20:27;7.87;;;5.00;;
21114;SDS011;10715;48.546;9.896;2022-11-15T04:23:22;7.73;;;6.60;;
21114;SDS011;10715;48.546;9.896;2022-11-15T04:26:08;7.63;;;5.90;;
21114;SDS011;10715;48.546;9.896;2022-11-15T04:28:39;7.70;;;6.37;;
21114;SDS011;10715;48.546;9.896;2022-11-15T04:31:25;6.10;;;4.23;;
21114;SDS011;10715;48.546;9.896;2022-11-15T04:33:52;5.80;;;4.50;;
21114;SDS011;10715;48.546;9.896;2022-11-15T04:36:18;4.83;;;4.10;;
21114;SDS011;10715;48.546;9.896;2022-11-15T04:39:02;3.30;;;3.00;;
21114;SDS011;10715;48.546;9.896;2022-11-15T04:41:28;6.73;;;3.70;;
21114;SDS011;10715;48.546;9.896;2022-11-15T04:43:54;4.47;;;4.03;;
21114;SDS011;10715;48.546;9.896;2022-11-15T04:46:20;3.93;;;3.63;;
21114;SDS011;10715;48.546;9.896;2022-11-15T04:48:47;5.03;;;4.63;;
21114;SDS011;10715;48.546;9.896;2022-11-15T04:51:13;3.80;;;3.50;;
21114;SDS011;10715;48.546;9.896;2022-11-15T04:53:38;6.23;;;4.83;;
21114;SDS011;10715;48.546;9.896;2022-11-15T04:56:04;5.87;;;3.73;;
21114;SDS011;10715;48.546;9.896;2022-11-15T04:58:30;6.53;;;3.47;;
21114;SDS011;10715;48.546;9.896;2022-11-15T05:00:56;3.90;;;3.37;;
21114;SDS011;10715;48.546;9.896;2022-11-15T05:03:21;3.70;;;3.40;;
21114;SDS011;10715;48.546;9.896;2022-11-15T05:06:05;5.37;;;3.73;;
21114;SDS011;10715;48.546;9.896;2022-11-15T05:08:31;5.10;;;4.63;;
21114;SDS011;10715;48.546;9.896;2022-11-15T05:10:57;4.30;;;3.90;;
21114;SDS011;10715;48.546;9.896;2022-11-15T05:13:23;5.63;;;4.30;;
21114;SDS011;10715;48.546;9.896;2022-11-15T05:15:49;4.00;;;3.70;;
21114;SDS011;10715;48.546;9.896;2022-11-15T05:18:14;7.17;;;4.70;;
21114;SDS011;10715;48.546;9.896;2022-11-15T05:20:40;4.07;;;3.70;;
21114;SDS011;10715;48.546;9.896;2022-11-15T05:23:06;5.10;;;4.60;;
21114;SDS011;10715;48.546;9.896;2022-11-15T05:25:32;4.80;;;4.23;;
21114;SDS011;10715;48.546;9.896;2022-11-15T05:27:58;6.07;;;4.97;;
21114;SDS011;10715;48.546;9.896;2022-11-15T05:30:23;9.00;;;5.20;;
21114;SDS011;10715;48.546;9.896;2022-11-15T05:32:49;6.83;;;4.33;;
21114;SDS011;10715;48.546;9.896;2022-11-15T05:35:18;4.03;;;3.73;;
21114;SDS011;10715;48.546;9.896;2022-11-15T05:37:50;3.23;;;3.00;;
21114;SDS011;10715;48.546;9.896;2022-11-15T05:40:16;6.03;;;3.30;;
21114;SDS011;10715;48.546;9.896;2022-11-15T05:42:41;4.10;;;3.70;;
21114;SDS011;10715;48.546;9.896;2022-11-15T05:45:07;8.33;;;4.83;;
21114;SDS011;10715;48.546;9.896;2022-11-15T05:47:34;6.03;;;4.93;;
21114;SDS011;10715;48.546;9.896;2022-11-15T05:50:02;9.50;;;6.23;;
21114;SDS011;10715;48.546;9.896;2022-11-15T05:52:30;15.50;;;10.00;;
21114;SDS011;10715;48.546;9.896;2022-11-15T05:54:58;17.80;;;11.80;;
21114;SDS011;10715;48.546;9.896;2022-11-15T05:57:24;24.10;;;13.63;;
21114;SDS011;10715;48.546;9.896;2022-11-15T05:59:50;14.63;;;9.77;;
21114;SDS011;10715;48.546;9.896;2022-11-15T06:02:16;12.63;;;7.10;;
21114;SDS011;10715;48.546;9.896;2022-11-15T06:04:42;8.83;;;7.50;;
21114;SDS011;10715;48.546;9.896;2022-11-15T06:07:08;7.70;;;6.07;;
21114;SDS011;10715;48.546;9.896;2022-11-15T06:09:33;8.47;;;5.57;;
21114;SDS011;10715;48.546;9.896;2022-11-15T06:11:59;6.27;;;5.47;;
21114;SDS011;10715;48.546;9.896;2022-11-15T06:14:24;6.33;;;5.30;;
21114;SDS011;10715;48.546;9.896;2022-11-15T06:16:50;6.47;;;5.77;;
21114;SDS011;10715;48.546;9.896;2022-11-15T06:19:16;12.77;;;6.43;;
21114;SDS011;10715;48.546;9.896;2022-11-15T06:21:41;4.53;;;4.13;;
21114;SDS011;10715;48.546;9.896;2022-11-15T06:24:07;16.53;;;7.47;;
21114;SDS011;10715;48.546;9.896;2022-11-15T06:26:33;10.03;;;4.80;;
21114;SDS011;10715;48.546;9.896;2022-11-15T06:28:59;4.93;;;4.07;;
21114;SDS011;10715;48.546;9.896;2022-11-15T06:31:24;9.00;;;4.57;;
21114;SDS011;10715;48.546;9.896;2022-11-15T06:33:50;9.13;;;8.23;;
21114;SDS011;10715;48.546;9.896;2022-11-15T06:36:16;6.47;;;4.50;;
21114;SDS011;10715;48.546;9.896;2022-11-15T06:38:42;4.90;;;4.13;;
21114;SDS011;10715;48.546;9.896;2022-11-15T06:41:09;6.17;;;4.80;;
21114;SDS011;10715;48.546;9.896;2022-11-15T06:43:36;6.43;;;5.93;;
21114;SDS011;10715;48.546;9.896;2022-11-15T06:46:03;6.73;;;6.20;;
21114;SDS011;10715;48.546;9.896;2022-11-15T06:48:30;5.40;;;4.90;;
21114;SDS011;10715;48.546;9.896;2022-11-15T06:50:58;7.03;;;5.20;;
21114;SDS011;10715;48.546;9.896;2022-11-15T06:53:25;7.37;;;5.37;;
21114;SDS011;10715;48.546;9.896;2022-11-15T06:55:51;6.83;;;4.60;;
21114;SDS011;10715;48.546;9.896;2022-11-15T06:58:17;7.43;;;5.90;;
21114;SDS011;10715;48.546;9.896;2022-11-15T07:00:43;4.87;;;4.40;;
21114;SDS011;10715;48.546;9.896;2022-11-15T07:03:09;5.30;;;4.53;;
21114;SDS011;10715;48.546;9.896;2022-11-15T07:05:34;4.13;;;3.80;;
21114;SDS011;10715;48.546;9.896;2022-11-15T07:08:00;7.53;;;4.53;;
21114;SDS011;10715;48.546;9.896;2022-11-15T07:10:26;5.23;;;4.77;;
21114;SDS011;10715;48.546;9.896;2022-11-15T07:12:53;11.50;;;5.27;;
21114;SDS011;10715;48.546;9.896;2022-11-15T07:15:23;4.33;;;4.03;;
21114;SDS011;10715;48.546;9.896;2022-11-15T07:17:50;6.07;;;5.47;;
21114;SDS011;10715;48.546;9.896;2022-11-15T07:20:16;6.23;;;4.50;;
21114;SDS011;10715;48.546;9.896;2022-11-15T07:22:43;6.83;;;5.43;;
21114;SDS011;10715;48.546;9.896;2022-11-15T07:25:12;7.47;;;5.23;;
21114;SDS011;10715;48.546;9.896;2022-11-15T07:27:37;9.33;;;5.70;;
21114;SDS011;10715;48.546;9.896;2022-11-15T07:30:03;5.27;;;4.77;;
21114;SDS011;10715;48.546;9.896;2022-11-15T07:32:30;5.77;;;4.27;;
21114;SDS011;10715;48.546;9.896;2022-11-15T07:34:55;4.67;;;4.27;;
21114;SDS011;10715;48.546;9.896;2022-11-15T07:37:21;4.27;;;3.60;;
21114;SDS011;10715;48.546;9.896;2022-11-15T07:39:47;4.30;;;3.90;;
21114;SDS011;10715;48.546;9.896;2022-11-15T07:42:13;7.40;;;4.93;;
21114;SDS011;10715;48.546;9.896;2022-11-15T07:44:57;7.50;;;6.00;;
21114;SDS011;10715;48.546;9.896;2022-11-15T07:47:22;7.07;;;5.00;;
21114;SDS011;10715;48.546;9.896;2022-11-15T07:49:48;5.67;;;5.27;;
21114;SDS011;10715;48.546;9.896;2022-11-15T07:52:14;7.60;;;6.23;;
21114;SDS011;10715;48.546;9.896;2022-11-15T07:54:39;6.50;;;5.90;;
21114;SDS011;10715;48.546;9.896;2022-11-15T07:57:05;10.90;;;8.03;;
21114;SDS011;10715;48.546;9.896;2022-11-15T07:59:32;10.90;;;7.93;;
21114;SDS011;10715;48.546;9.896;2022-11-15T08:01:58;9.93;;;7.30;;
21114;SDS011;10715;48.546;9.896;2022-11-15T08:04:23;9.47;;;8.67;;
21114;SDS011;10715;48.546;9.896;2022-11-15T08:06:49;14.47;;;11.90;;
21114;SDS011;10715;48.546;9.896;2022-11-15T08:09:15;15.43;;;12.73;;
21114;SDS011;10715;48.546;9.896;2022-11-15T08:11:41;17.10;;;12.90;;
21114;SDS011;10715;48.546;9.896;2022-11-15T08:14:06;15.77;;;11.83;;
21114;SDS011;10715;48.546;9.896;2022-11-15T08:16:32;11.57;;;9.73;;
21114;SDS011;10715;48.546;9.896;2022-11-15T08:18:58;12.47;;;8.70;;
21114;SDS011;10715;48.546;9.896;2022-11-15T08:21:24;16.90;;;11.60;;
21114;SDS011;10715;48.546;9.896;2022-11-15T08:23:49;12.07;;;10.77;;
21114;SDS011;10715;48.546;9.896;2022-11-15T08:26:15;14.00;;;10.23;;
21114;SDS011;10715;48.546;9.896;2022-11-15T08:28:41;11.53;;;9.20;;
21114;SDS011;10715;48.546;9.896;2022-11-15T08:31:12;9.73;;;8.73;;
21114;SDS011;10715;48.546;9.896;2022-11-15T08:33:40;12.40;;;9.47;;
21114;SDS011;10715;48.546;9.896;2022-11-15T08:36:06;9.47;;;8.47;;
21114;SDS011;10715;48.546;9.896;2022-11-15T08:38:36;9.80;;;8.87;;
21114;SDS011;10715;48.546;9.896;2022-11-15T08:41:04;18.70;;;11.27;;
21114;SDS011;10715;48.546;9.896;2022-11-15T08:43:31;15.73;;;11.83;;
21114;SDS011;10715;48.546;9.896;2022-11-15T08:45:57;19.10;;;10.93;;
21114;SDS011;10715;48.546;9.896;2022-11-15T08:48:23;22.53;;;11.93;;
21114;SDS011;10715;48.546;9.896;2022-11-15T08:50:48;25.40;;;11.93;;
21114;SDS011;10715;48.546;9.896;2022-11-15T08:53:18;21.30;;;11.40;;
21114;SDS011;10715;48.546;9.896;2022-11-15T08:55:43;22.17;;;12.20;;
21114;SDS011;10715;48.546;9.896;2022-11-15T08:58:09;20.67;;;13.50;;
21114;SDS011;10715;48.546;9.896;2022-11-15T09:00:35;40.53;;;21.33;;
21114;SDS011;10715;48.546;9.896;2022-11-15T09:03:03;27.60;;;18.50;;
21114;SDS011;10715;48.546;9.896;2022-11-15T09:05:30;31.60;;;17.23;;
21114;SDS011;10715;48.546;9.896;2022-11-15T09:07:56;27.97;;;18.00;;
21114;SDS011;10715;48.546;9.896;2022-11-15T09:10:22;25.10;;;16.93;;
21114;SDS011;10715;48.546;9.896;2022-11-15T09:12:47;28.60;;;16.40;;
21114;SDS011;10715;48.546;9.896;2022-11-15T09:15:14;20.93;;;16.20;;
21114;SDS011;10715;48.546;9.896;2022-11-15T09:17:41;24.20;;;14.93;;
21114;SDS011;10715;48.546;9.896;2022-11-15T09:20:07;22.00;;;15.40;;
21114;SDS011;10715;48.546;9.896;2022-11-15T09:22:33;27.17;;;17.10;;
21114;SDS011;10715;48.546;9.896;2022-11-15T09:25:01;24.53;;;13.83;;
21114;SDS011;10715;48.546;9.896;2022-11-15T09:27:28;17.70;;;13.73;;
21114;SDS011;10715;48.546;9.896;2022-11-15T09:29:55;13.03;;;10.77;;
21114;SDS011;10715;48.546;9.896;2022-11-15T09:32:20;10.83;;;9.73;;
21114;SDS011;10715;48.546;9.896;2022-11-15T09:34:48;9.10;;;8.17;;
21114;SDS011;10715;48.546;9.896;2022-11-15T09:37:14;10.57;;;8.30;;
21114;SDS011;10715;48.546;9.896;2022-11-15T09:39:40;9.43;;;8.47;;
21114;SDS011;10715;48.546;9.896;2022-11-15T09:47:54;9.20;;;8.40;;
21114;SDS011;10715;48.546;9.896;2022-11-15T09:50:32;7.33;;;6.70;;
21114;SDS011;10715;48.546;9.896;2022-11-15T09:53:02;6.37;;;5.77;;
21114;SDS011;10715;48.546;9.896;2022-11-15T09:55:32;6.43;;;5.90;;
21114;SDS011;10715;48.546;9.896;2022-11-15T10:04:15;8.60;;;7.70;;
21114;SDS011;10715;48.546;9.896;2022-11-15T10:06:46;13.60;;;7.60;;
21114;SDS011;10715;48.546;9.896;2022-11-15T10:09:24;12.20;;;9.90;;
21114;SDS011;10715;48.546;9.896;2022-11-15T10:11:55;8.60;;;7.90;;
21114;SDS011;10715;48.546;9.896;2022-11-15T10:14:22;9.20;;;8.17;;
21114;SDS011;10715;48.546;9.896;2022-11-15T10:16:54;8.00;;;6.83;;
21114;SDS011;10715;48.546;9.896;2022-11-15T10:22:28;6.40;;;5.80;;
21114;SDS011;10715;48.546;9.896;2022-11-15T10:30:21;10.10;;;6.90;;
21114;SDS011;10715;48.546;9.896;2022-11-15T10:32:47;11.53;;;6.33;;
21114;SDS011;10715;48.546;9.896;2022-11-15T10:35:18;5.73;;;5.33;;
21114;SDS011;10715;48.546;9.896;2022-11-15T10:37:47;15.00;;;6.63;;
21114;SDS011;10715;48.546;9.896;2022-11-15T10:40:18;7.10;;;6.60;;
21114;SDS011;10715;48.546;9.896;2022-11-15T10:42:46;7.17;;;6.57;;
21114;SDS011;10715;48.546;9.896;2022-11-15T10:45:23;10.03;;;6.17;;
21114;SDS011;10715;48.546;9.896;2022-11-15T10:47:51;6.03;;;5.63;;
21114;SDS011;10715;48.546;9.896;2022-11-15T10:50:30;8.27;;;5.50;;
21114;SDS011;10715;48.546;9.896;2022-11-15T10:52:57;6.53;;;6.03;;
21114;SDS011;10715;48.546;9.896;2022-11-15T10:55:27;7.70;;;5.67;;
21114;SDS011;10715;48.546;9.896;2022-11-15T10:58:01;6.00;;;5.30;;
21114;SDS011;10715;48.546;9.896;2022-11-15T11:00:32;6.53;;;5.90;;
21114;SDS011;10715;48.546;9.896;2022-11-15T11:05:33;8.97;;;6.50;;
21114;SDS011;10715;48.546;9.896;2022-11-15T11:08:05;4.87;;;4.47;;
21114;SDS011;10715;48.546;9.896;2022-11-15T11:10:37;4.53;;;4.10;;
21114;SDS011;10715;48.546;9.896;2022-11-15T11:13:13;5.73;;;4.27;;
21114;SDS011;10715;48.546;9.896;2022-11-15T11:21:35;5.80;;;5.37;;
21114;SDS011;10715;48.546;9.896;2022-11-15T11:27:24;4.70;;;4.30;;
21114;SDS011;10715;48.546;9.896;2022-11-15T11:35:29;5.00;;;4.60;;
21114;SDS011;10715;48.546;9.896;2022-11-15T11:38:39;5.00;;;3.90;;
21114;SDS011;10715;48.546;9.896;2022-11-15T11:44:28;5.87;;;4.10;;
21114;SDS011;10715;48.546;9.896;2022-11-15T11:47:14;6.00;;;5.53;;
21114;SDS011;10715;48.546;9.896;2022-11-15T11:49:51;4.80;;;4.40;;
21114;SDS011;10715;48.546;9.896;2022-11-15T11:52:34;5.30;;;4.80;;
21114;SDS011;10715;48.546;9.896;2022-11-15T11:55:20;14.87;;;4.93;;
21114;SDS011;10715;48.546;9.896;2022-11-15T12:00:40;10.93;;;4.50;;
21114;SDS011;10715;48.546;9.896;2022-11-15T12:03:13;6.60;;;3.90;;
21114;SDS011;10715;48.546;9.896;2022-11-15T12:05:51;2.90;;;2.57;;
21114;SDS011;10715;48.546;9.896;2022-11-15T12:13:58;6.30;;;4.47;;
21114;SDS011;10715;48.546;9.896;2022-11-15T12:16:28;3.50;;;3.20;;
21114;SDS011;10715;48.546;9.896;2022-11-15T12:18:56;4.50;;;4.10;;
21114;SDS011;10715;48.546;9.896;2022-11-15T12:24:22;3.37;;;3.10;;
21114;SDS011;10715;48.546;9.896;2022-11-15T12:26:59;4.23;;;2.93;;
21114;SDS011;10715;48.546;9.896;2022-11-15T12:29:42;3.37;;;3.10;;
21114;SDS011;10715;48.546;9.896;2022-11-15T12:32:38;3.47;;;3.17;;
21114;SDS011;10715;48.546;9.896;2022-11-15T12:35:04;4.63;;;3.93;;
21114;SDS011;10715;48.546;9.896;2022-11-15T12:37:47;3.50;;;3.13;;
21114;SDS011;10715;48.546;9.896;2022-11-15T12:40:18;3.47;;;2.83;;
21114;SDS011;10715;48.546;9.896;2022-11-15T12:45:39;8.80;;;2.57;;
21114;SDS011;10715;48.546;9.896;2022-11-15T12:53:40;3.40;;;3.20;;
21114;SDS011;10715;48.546;9.896;2022-11-15T13:07:05;8.67;;;2.17;;
21114;SDS011;10715;48.546;9.896;2022-11-15T13:12:02;3.23;;;2.70;;
21114;SDS011;10715;48.546;9.896;2022-11-15T13:14:50;7.47;;;2.43;;
21114;SDS011;10715;48.546;9.896;2022-11-15T13:22:26;2.87;;;2.60;;
21114;SDS011;10715;48.546;9.896;2022-11-15T13:25:19;7.23;;;3.80;;
21114;SDS011;10715;48.546;9.896;2022-11-15T13:27:57;3.60;;;3.40;;
21114;SDS011;10715;48.546;9.896;2022-11-15T13:30:29;4.50;;;2.90;;
21114;SDS011;10715;48.546;9.896;2022-11-15T13:32:57;7.77;;;4.20;;
21114;SDS011;10715;48.546;9.896;2022-11-15T13:35:29;4.37;;;3.97;;
21114;SDS011;10715;48.546;9.896;2022-11-15T13:37:58;23.57;;;14.87;;
21114;SDS011;10715;48.546;9.896;2022-11-15T13:40:33;5.10;;;4.50;;
21114;SDS011;10715;48.546;9.896;2022-11-15T13:45:45;7.20;;;4.80;;
21114;SDS011;10715;48.546;9.896;2022-11-15T13:48:34;4.57;;;4.03;;
21114;SDS011;10715;48.546;9.896;2022-11-15T13:51:01;7.63;;;4.27;;
21114;SDS011;10715;48.546;9.896;2022-11-15T13:53:31;6.40;;;5.13;;
21114;SDS011;10715;48.546;9.896;2022-11-15T13:55:58;5.40;;;3.80;;
21114;SDS011;10715;48.546;9.896;2022-11-15T13:58:24;4.53;;;3.63;;
21114;SDS011;10715;48.546;9.896;2022-11-15T14:00:58;3.80;;;3.50;;
21114;SDS011;10715;48.546;9.896;2022-11-15T14:03:30;9.50;;;4.10;;
21114;SDS011;10715;48.546;9.896;2022-11-15T14:08:29;4.80;;;4.33;;
21114;SDS011;10715;48.546;9.896;2022-11-15T14:19:01;8.80;;;5.00;;
21114;SDS011;10715;48.546;9.896;2022-11-15T14:21:28;12.03;;;4.87;;
21114;SDS011;10715;48.546;9.896;2022-11-15T14:24:13;5.93;;;5.40;;
21114;SDS011;10715;48.546;9.896;2022-11-15T14:26:40;9.57;;;6.47;;
21114;SDS011;10715;48.546;9.896;2022-11-15T14:29:23;11.47;;;7.83;;
21114;SDS011;10715;48.546;9.896;2022-11-15T14:31:50;13.93;;;6.90;;
21114;SDS011;10715;48.546;9.896;2022-11-15T14:34:16;9.43;;;7.57;;
21114;SDS011;10715;48.546;9.896;2022-11-15T14:36:42;12.37;;;9.33;;
21114;SDS011;10715;48.546;9.896;2022-11-15T14:39:07;13.93;;;8.30;;
21114;SDS011;10715;48.546;9.896;2022-11-15T14:41:35;10.40;;;8.90;;
21114;SDS011;10715;48.546;9.896;2022-11-15T14:44:04;13.53;;;9.80;;
21114;SDS011;10715;48.546;9.896;2022-11-15T14:46:31;10.97;;;8.60;;
21114;SDS011;10715;48.546;9.896;2022-11-15T14:48:57;12.17;;;9.00;;
21114;SDS011;10715;48.546;9.896;2022-11-15T14:51:23;12.10;;;7.87;;
21114;SDS011;10715;48.546;9.896;2022-11-15T14:53:49;19.40;;;9.83;;
21114;SDS011;10715;48.546;9.896;2022-11-15T14:56:15;13.30;;;8.07;;
21114;SDS011;10715;48.546;9.896;2022-11-15T14:58:43;14.27;;;8.30;;
21114;SDS011;10715;48.546;9.896;2022-11-15T15:01:13;12.23;;;8.27;;
21114;SDS011;10715;48.546;9.896;2022-11-15T15:03:46;19.83;;;12.10;;
21114;SDS011;10715;48.546;9.896;2022-11-15T15:06:12;19.87;;;13.37;;
21114;SDS011;10715;48.546;9.896;2022-11-15T15:08:41;16.50;;;9.93;;
21114;SDS011;10715;48.546;9.896;2022-11-15T15:11:12;17.63;;;11.10;;
21114;SDS011;10715;48.546;9.896;2022-11-15T15:13:40;10.23;;;8.07;;
21114;SDS011;10715;48.546;9.896;2022-11-15T15:16:06;11.23;;;8.73;;
21114;SDS011;10715;48.546;9.896;2022-11-15T15:18:32;10.83;;;7.60;;
21114;SDS011;10715;48.546;9.896;2022-11-15T15:20:58;12.87;;;9.43;;
21114;SDS011;10715;48.546;9.896;2022-11-15T15:23:27;8.50;;;7.67;;
21114;SDS011;10715;48.546;9.896;2022-11-15T15:25:56;12.33;;;10.40;;
21114;SDS011;10715;48.546;9.896;2022-11-15T15:28:22;11.77;;;7.80;;
21114;SDS011;10715;48.546;9.896;2022-11-15T15:30:47;10.90;;;8.80;;
21114;SDS011;10715;48.546;9.896;2022-11-15T15:33:14;13.03;;;7.97;;
21114;SDS011;10715;48.546;9.896;2022-11-15T15:35:40;19.57;;;9.63;;
21114;SDS011;10715;48.546;9.896;2022-11-15T15:38:08;14.10;;;9.10;;
21114;SDS011;10715;48.546;9.896;2022-11-15T15:40:36;12.13;;;7.40;;
21114;SDS011;10715;48.546;9.896;2022-11-15T15:43:02;16.00;;;9.33;;
21114;SDS011;10715;48.546;9.896;2022-11-15T15:45:28;15.80;;;11.67;;
21114;SDS011;10715;48.546;9.896;2022-11-15T15:47:54;15.90;;;10.20;;
21114;SDS011;10715;48.546;9.896;2022-11-15T15:50:22;16.73;;;10.53;;
21114;SDS011;10715;48.546;9.896;2022-11-15T15:52:51;18.60;;;12.60;;
21114;SDS011;10715;48.546;9.896;2022-11-15T15:55:18;17.87;;;13.13;;
21114;SDS011;10715;48.546;9.896;2022-11-15T15:57:44;19.83;;;10.40;;
21114;SDS011;10715;48.546;9.896;2022-11-15T16:00:11;19.50;;;12.57;;
21114;SDS011;10715;48.546;9.896;2022-11-15T16:02:37;29.83;;;10.67;;
21114;SDS011;10715;48.546;9.896;2022-11-15T16:05:03;19.70;;;11.20;;
21114;SDS011;10715;48.546;9.896;2022-11-15T16:07:30;13.80;;;10.73;;
21114;SDS011;10715;48.546;9.896;2022-11-15T16:09:55;11.87;;;9.67;;
21114;SDS011;10715;48.546;9.896;2022-11-15T16:12:28;21.13;;;12.67;;
21114;SDS011;10715;48.546;9.896;2022-11-15T16:15:00;12.93;;;10.00;;
21114;SDS011;10715;48.546;9.896;2022-11-15T16:17:31;13.23;;;9.33;;
21114;SDS011;10715;48.546;9.896;2022-11-15T16:20:00;19.00;;;11.30;;
21114;SDS011;10715;48.546;9.896;2022-11-15T16:22:26;20.20;;;11.53;;
21114;SDS011;10715;48.546;9.896;2022-11-15T16:24:54;19.03;;;10.90;;
21114;SDS011;10715;48.546;9.896;2022-11-15T16:27:20;16.87;;;9.80;;
21114;SDS011;10715;48.546;9.896;2022-11-15T16:29:46;23.77;;;14.10;;
21114;SDS011;10715;48.546;9.896;2022-11-15T16:32:12;29.07;;;16.27;;
21114;SDS011;10715;48.546;9.896;2022-11-15T16:34:39;21.30;;;13.57;;
21114;SDS011;10715;48.546;9.896;2022-11-15T16:37:05;18.20;;;11.27;;
21114;SDS011;10715;48.546;9.896;2022-11-15T16:39:37;19.10;;;11.60;;
21114;SDS011;10715;48.546;9.896;2022-11-15T16:42:02;18.80;;;11.10;;
21114;SDS011;10715;48.546;9.896;2022-11-15T16:44:28;11.37;;;9.80;;
21114;SDS011;10715;48.546;9.896;2022-11-15T16:46:54;12.93;;;9.03;;
21114;SDS011;10715;48.546;9.896;2022-11-15T16:49:20;15.87;;;11.30;;
21114;SDS011;10715;48.546;9.896;2022-11-15T16:51:46;12.03;;;8.97;;
21114;SDS011;10715;48.546;9.896;2022-11-15T16:54:13;22.07;;;11.07;;
21114;SDS011;10715;48.546;9.896;2022-11-15T16:56:39;18.83;;;10.70;;
21114;SDS011;10715;48.546;9.896;2022-11-15T16:59:06;14.13;;;9.23;;
21114;SDS011;10715;48.546;9.896;2022-11-15T17:01:34;12.70;;;9.23;;
21114;SDS011;10715;48.546;9.896;2022-11-15T17:04:02;14.10;;;10.00;;
21114;SDS011;10715;48.546;9.896;2022-11-15T17:06:37;18.73;;;10.33;;
21114;SDS011;10715;48.546;9.896;2022-11-15T17:09:09;18.33;;;10.10;;